Time;durP1;ratioP1;P1;durP2;ratioP2;P2;SDS_P1;SDS_P2;PMS_P1;PMS_P2;Temp;Humidity;BMP_temperature;BMP_pressure;BME280_temperature;BME280_humidity;BME280_pressure;Samples;Min_cycle;Max_cycle;Signal;HPM_P1;HPM_P2
2021/10/31 00:02:16;;;;;;;22.77;14.18;;;;;;;11.94;51.65;100404.06;4453240;32;34640;-49
2021/10/31 00:04:45;;;;;;;26.48;14.55;;;;;;;11.81;51.74;100397.09;4453229;32;34889;-48
2021/10/31 00:07:13;;;;;;;22.62;14.85;;;;;;;11.53;52.21;100398.62;4451878;32;33706;-48
2021/10/31 00:09:40;;;;;;;21.92;14.48;;;;;;;11.47;52.55;100399.50;4453424;32;33593;-50
2021/10/31 00:12:09;;;;;;;24.10;14.20;;;;;;;11.35;52.87;100406.34;4453146;32;33796;-48
2021/10/31 00:14:36;;;;;;;22.80;14.48;;;;;;;11.40;52.87;100402.91;4453220;32;35404;-48
2021/10/31 00:17:04;;;;;;;23.60;16.05;;;;;;;11.39;52.93;100401.16;4453050;32;34620;-49
2021/10/31 00:19:32;;;;;;;24.33;15.30;;;;;;;11.25;53.36;100404.53;4451741;32;33823;-48
2021/10/31 00:22:00;;;;;;;32.72;16.35;;;;;;;11.31;53.13;100404.59;4452939;32;33844;-48
2021/10/31 00:24:27;;;;;;;25.45;14.73;;;;;;;11.06;53.80;100400.06;4453099;32;35381;-48
2021/10/31 00:26:55;;;;;;;22.25;14.52;;;;;;;11.07;53.90;100402.69;4452849;32;34952;-49
2021/10/31 00:29:22;;;;;;;25.27;14.87;;;;;;;11.17;53.62;100403.63;4452942;32;34210;-50
2021/10/31 00:31:50;;;;;;;21.70;14.27;;;;;;;11.05;54.02;100393.13;4452889;32;33833;-49
2021/10/31 00:34:17;;;;;;;21.40;15.52;;;;;;;11.08;53.93;100395.78;4452824;32;34905;-50
2021/10/31 00:36:45;;;;;;;20.77;14.57;;;;;;;11.11;53.82;100388.84;4452730;32;34319;-49
2021/10/31 00:39:12;;;;;;;25.05;17.65;;;;;;;10.96;54.13;100382.66;4452805;32;34449;-50
2021/10/31 00:41:40;;;;;;;28.73;15.93;;;;;;;10.81;54.18;100381.69;4452702;32;34032;-49
2021/10/31 00:44:07;;;;;;;22.95;15.23;;;;;;;10.57;54.73;100391.88;4452734;32;34927;-51
2021/10/31 00:46:35;;;;;;;22.73;14.75;;;;;;;10.76;54.42;100382.50;4452648;32;35117;-49
2021/10/31 00:49:03;;;;;;;22.25;14.98;;;;;;;10.78;54.48;100380.78;4452788;32;34323;-49
2021/10/31 00:51:30;;;;;;;22.73;14.40;;;;;;;10.64;54.70;100377.19;4452868;32;33944;-49
2021/10/31 00:54:00;;;;;;;21.80;15.77;;;;;;;10.64;54.69;100382.38;4452591;32;35824;-49
2021/10/31 00:56:28;;;;;;;27.33;15.30;;;;;;;10.64;54.68;100374.59;4452259;32;34476;-50
2021/10/31 00:58:56;;;;;;;24.37;15.63;;;;;;;10.64;54.63;100377.19;4452551;32;33156;-49
2021/10/31 01:01:25;;;;;;;23.48;15.32;;;;;;;10.66;55.05;100365.06;4452345;32;33829;-49
2021/10/31 01:03:54;;;;;;;24.95;15.38;;;;;;;10.61;55.57;100370.22;4452627;32;35556;-49
2021/10/31 01:06:44;;;;;;;25.83;16.15;;;;;;;10.66;55.87;100365.06;4452302;32;34350;-49
2021/10/31 01:09:19;;;;;;;23.38;15.82;;;;;;;10.69;55.93;100352.97;4452491;32;33433;-50
2021/10/31 01:12:16;;;;;;;24.37;16.15;;;;;;;10.66;56.28;100350.31;4451209;32;34648;-49
2021/10/31 01:14:45;;;;;;;28.05;16.92;;;;;;;10.87;55.77;100349.59;4409936;32;34760;-51
2021/10/31 01:17:15;;;;;;;26.45;16.20;;;;;;;10.95;55.53;100342.75;4452240;32;35095;-49
2021/10/31 01:19:57;;;;;;;26.50;17.00;;;;;;;10.83;55.93;100342.66;4452697;32;33090;-49
2021/10/31 01:22:54;;;;;;;24.87;16.48;;;;;;;10.85;55.80;100341.81;4453257;32;33379;-49
2021/10/31 01:25:40;;;;;;;25.08;15.55;;;;;;;10.91;55.87;100348.75;4425300;32;35265;-49
2021/10/31 01:28:57;;;;;;;24.00;15.90;;;;;;;10.81;55.91;100346.97;4453104;32;34558;-49
2021/10/31 01:31:44;;;;;;;22.48;15.90;;;;;;;10.82;56.03;100346.97;4390644;32;33675;-48
2021/10/31 01:34:38;;;;;;;23.33;15.52;;;;;;;10.80;56.26;100346.09;4378376;32;33654;-49
2021/10/31 01:37:13;;;;;;;25.83;15.90;;;;;;;10.93;56.14;100341.87;4443806;32;34772;-51
2021/10/31 01:40:05;;;;;;;24.80;16.42;;;;;;;10.99;55.71;100343.62;4454240;32;34277;-50
2021/10/31 01:42:42;;;;;;;26.42;16.62;;;;;;;10.93;56.07;100343.59;4454254;32;33675;-50
2021/10/31 01:45:20;;;;;;;28.00;17.67;;;;;;;11.01;55.94;100340.16;4453026;32;34040;-49
2021/10/31 01:47:57;;;;;;;24.25;16.73;;;;;;;11.03;55.95;100330.62;4452943;32;34392;-49
2021/10/31 01:50:45;;;;;;;25.12;16.45;;;;;;;11.11;55.89;100336.75;4454187;32;34660;-49
2021/10/31 01:53:18;;;;;;;24.55;17.12;;;;;;;11.08;56.06;100333.28;4453066;32;33168;-49
2021/10/31 01:55:52;;;;;;;24.83;16.12;;;;;;;11.22;55.72;100347.25;4452676;32;33961;-49
2021/10/31 01:58:22;;;;;;;24.12;16.17;;;;;;;11.16;55.82;100335.06;4452888;32;35788;-49
2021/10/31 02:00:50;;;;;;;26.35;16.87;;;;;;;11.16;55.66;100331.59;4452822;32;33258;-49
2021/10/31 02:03:19;;;;;;;25.90;16.23;;;;;;;11.20;55.44;100333.34;4452899;32;33419;-49
2021/10/31 02:05:48;;;;;;;26.12;16.27;;;;;;;11.18;55.61;100325.53;4452802;32;33938;-49
2021/10/31 02:08:18;;;;;;;27.42;16.95;;;;;;;11.06;55.83;100320.25;4452704;32;35191;-49
2021/10/31 02:10:47;;;;;;;26.05;17.35;;;;;;;11.16;55.77;100321.16;4453995;32;34363;-49
2021/10/31 02:13:15;;;;;;;24.90;16.80;;;;;;;10.96;56.43;100326.25;4452871;32;34077;-49
2021/10/31 02:15:44;;;;;;;26.65;17.73;;;;;;;10.99;56.19;100315.88;4452764;32;33846;-49
2021/10/31 02:18:13;;;;;;;29.37;18.75;;;;;;;10.99;56.39;100315.00;4452624;32;34819;-49
2021/10/31 02:20:42;;;;;;;24.45;16.80;;;;;;;10.83;56.78;100317.50;4452626;32;34291;-49
2021/10/31 02:23:10;;;;;;;28.58;17.48;;;;;;;10.91;56.84;100322.75;4453879;32;34485;-49
2021/10/31 02:25:37;;;;;;;26.75;17.60;;;;;;;11.03;56.42;100315.00;4453954;32;33792;-49
2021/10/31 02:28:05;;;;;;;27.15;17.40;;;;;;;11.00;56.41;100309.81;4453972;32;34887;-49
2021/10/31 02:30:32;;;;;;;28.40;18.00;;;;;;;10.96;56.81;100310.63;4453613;32;34374;-49
2021/10/31 02:33:00;;;;;;;29.42;18.30;;;;;;;10.88;57.30;100315.81;4453083;32;33966;-49
2021/10/31 02:35:28;;;;;;;25.95;17.73;;;;;;;10.95;57.17;100310.63;4454060;32;33913;-49
2021/10/31 02:37:55;;;;;;;25.55;16.58;;;;;;;10.83;57.51;100316.62;4452532;32;34207;-49
2021/10/31 02:40:23;;;;;;;30.10;17.87;;;;;;;10.85;57.58;100309.69;4453846;32;35002;-49
2021/10/31 02:42:51;;;;;;;29.17;17.75;;;;;;;10.77;57.96;100308.78;4453686;32;33325;-50
2021/10/31 02:45:19;;;;;;;29.25;17.90;;;;;;;10.86;57.73;100303.66;4452536;32;34488;-49
2021/10/31 02:47:55;;;;;;;26.35;18.37;;;;;;;10.81;57.76;100303.62;4453730;32;35337;-49
2021/10/31 02:50:29;;;;;;;26.98;17.67;;;;;;;10.95;57.29;100311.50;4452601;32;35175;-50
2021/10/31 02:53:13;;;;;;;26.60;18.02;;;;;;;11.11;56.60;100313.34;4452604;32;33546;-50
2021/10/31 02:56:09;;;;;;;29.37;18.60;;;;;;;11.13;56.35;100321.16;4452375;32;34167;-49
2021/10/31 02:58:56;;;;;;;27.98;18.37;;;;;;;10.88;56.83;100313.22;4453717;32;34809;-49
2021/10/31 03:01:25;;;;;;;26.55;17.62;;;;;;;11.05;56.44;100315.91;4452470;32;34246;-49
2021/10/31 03:03:54;;;;;;;27.48;17.80;;;;;;;11.03;56.67;100320.22;4453802;32;33269;-49
2021/10/31 03:06:22;;;;;;;29.63;17.95;;;;;;;10.66;57.67;100313.03;4453536;32;33892;-51
2021/10/31 03:08:50;;;;;;;26.10;17.65;;;;;;;10.69;57.64;100319.16;4454010;32;34982;-50
2021/10/31 03:11:18;;;;;;;26.90;18.33;;;;;;;10.74;57.45;100319.19;4453757;32;35340;-49
2021/10/31 03:13:46;;;;;;;27.25;17.48;;;;;;;10.84;57.17;100320.97;4453579;32;34507;-50
2021/10/31 03:16:13;;;;;;;26.48;18.12;;;;;;;10.93;56.87;100320.16;4453618;32;34296;-53
2021/10/31 03:18:41;;;;;;;26.33;17.52;;;;;;;10.90;56.69;100315.81;4452367;32;35232;-49
2021/10/31 03:21:09;;;;;;;25.62;18.37;;;;;;;10.63;57.49;100313.88;4453514;32;35004;-49
2021/10/31 03:23:39;;;;;;;26.27;18.12;;;;;;;10.75;57.25;100307.87;4453643;32;34269;-49
2021/10/31 03:26:07;;;;;;;30.65;19.48;;;;;;;10.55;57.95;100312.09;4453634;32;33949;-51
2021/10/31 03:28:34;;;;;;;29.63;18.75;;;;;;;10.76;57.28;100310.53;4453714;32;35219;-50
2021/10/31 03:31:02;;;;;;;26.00;17.70;;;;;;;10.66;57.56;100315.63;4453772;32;34373;-49
2021/10/31 03:33:30;;;;;;;29.00;19.50;;;;;;;10.81;56.51;100319.25;4453561;32;34234;-50
2021/10/31 03:35:58;;;;;;;26.60;18.12;;;;;;;10.58;56.89;100322.50;4453413;32;34350;-49
2021/10/31 03:38:25;;;;;;;27.52;18.12;;;;;;;10.53;56.79;100324.22;4453310;32;34981;-49
2021/10/31 03:40:53;;;;;;;26.83;18.05;;;;;;;10.50;56.86;100329.38;4453393;32;34207;-52
2021/10/31 03:43:21;;;;;;;26.15;16.92;;;;;;;10.47;56.78;100332.81;4453080;32;34370;-50
2021/10/31 03:45:50;;;;;;;30.08;18.42;;;;;;;10.45;56.50;100333.66;4453340;32;33766;-51
2021/10/31 03:48:18;;;;;;;26.90;17.52;;;;;;;10.27;56.63;100323.12;4453290;32;35282;-49
2021/10/31 03:50:46;;;;;;;30.20;17.90;;;;;;;10.22;56.75;100323.06;4453282;32;35112;-49
2021/10/31 03:53:13;;;;;;;25.45;17.48;;;;;;;9.98;57.20;100323.62;4453361;32;34269;-50
2021/10/31 03:55:42;;;;;;;32.38;18.58;;;;;;;10.09;57.49;100319.44;4453196;32;33925;-50
2021/10/31 03:58:10;;;;;;;30.00;19.20;;;;;;;9.88;58.67;100329.63;4453196;32;35775;-49
2021/10/31 04:00:37;;;;;;;29.08;17.83;;;;;;;10.16;58.36;100325.59;4452355;32;35004;-49
2021/10/31 04:03:05;;;;;;;30.10;19.15;;;;;;;10.05;58.32;100325.47;4453143;32;33633;-49
2021/10/31 04:05:33;;;;;;;26.48;18.27;;;;;;;10.13;57.87;100323.84;4453051;32;34660;-49
2021/10/31 04:08:00;;;;;;;26.62;18.48;;;;;;;9.92;58.31;100313.19;4453241;32;34825;-50
2021/10/31 04:10:29;;;;;;;28.35;17.48;;;;;;;9.84;58.66;100327.81;4453370;32;34689;-49
2021/10/31 04:12:56;;;;;;;29.52;18.55;;;;;;;10.08;58.42;100322.00;4453462;32;34397;-49
2021/10/31 04:15:24;;;;;;;28.48;18.30;;;;;;;9.98;58.69;100308.06;4452994;32;33977;-49
2021/10/31 04:17:52;;;;;;;25.05;17.80;;;;;;;9.98;58.92;100321.03;4452083;32;34308;-50
2021/10/31 04:20:20;;;;;;;30.65;18.40;;;;;;;10.17;58.83;100317.81;4453090;32;34390;-49
2021/10/31 04:22:48;;;;;;;27.95;18.15;;;;;;;10.07;58.43;100320.28;4452985;32;33440;-49
2021/10/31 04:25:16;;;;;;;26.55;18.17;;;;;;;9.91;59.00;100327.03;4452923;32;34660;-49
2021/10/31 04:27:43;;;;;;;32.35;18.90;;;;;;;9.98;58.65;100326.25;4452912;32;34765;-49
2021/10/31 04:30:12;;;;;;;30.60;19.15;;;;;;;9.87;58.85;100332.19;4453157;32;34309;-49
2021/10/31 04:32:41;;;;;;;27.40;18.75;;;;;;;9.91;58.56;100328.78;4452902;32;33502;-49
2021/10/31 04:35:10;;;;;;;30.23;18.02;;;;;;;10.00;58.64;100329.75;4452770;32;34611;-49
2021/10/31 04:37:40;;;;;;;29.42;18.85;;;;;;;9.90;58.73;100319.22;4451538;32;34760;-49
2021/10/31 04:40:10;;;;;;;27.83;19.02;;;;;;;9.88;58.72;100316.62;4451733;32;33979;-49
2021/10/31 04:42:39;;;;;;;29.12;18.67;;;;;;;9.99;58.50;100319.31;4453069;32;33075;-52
2021/10/31 04:45:07;;;;;;;27.75;18.55;;;;;;;9.81;59.27;100322.63;4452722;32;34141;-50
2021/10/31 04:47:34;;;;;;;29.42;18.73;;;;;;;9.89;59.47;100315.75;4452693;32;35557;-50
2021/10/31 04:50:02;;;;;;;28.33;18.37;;;;;;;9.94;59.06;100318.41;4451466;32;34424;-50
2021/10/31 04:52:31;;;;;;;29.77;18.77;;;;;;;9.95;59.02;100312.34;4451552;32;33138;-49
2021/10/31 04:54:59;;;;;;;30.62;19.98;;;;;;;9.89;59.27;100313.16;4452065;32;34193;-49
2021/10/31 04:57:26;;;;;;;30.55;19.58;;;;;;;9.92;59.35;100301.94;4454278;32;35487;-50
2021/10/31 04:59:54;;;;;;;28.38;18.55;;;;;;;9.89;59.43;100300.16;4454597;32;35165;-50
2021/10/31 05:02:21;;;;;;;28.33;18.60;;;;;;;9.86;59.41;100304.47;4454441;32;33331;-49
2021/10/31 05:04:49;;;;;;;29.37;19.23;;;;;;;9.85;59.46;100305.31;4454451;32;34802;-50
2021/10/31 05:07:16;;;;;;;34.05;19.70;;;;;;;9.82;59.53;100302.69;4454427;32;35579;-49
2021/10/31 05:09:44;;;;;;;31.15;18.45;;;;;;;9.78;59.73;100311.31;4454379;32;34814;-49
2021/10/31 05:12:12;;;;;;;31.20;20.85;;;;;;;9.67;60.03;100318.13;4454824;32;33441;-50
2021/10/31 05:14:40;;;;;;;27.05;18.60;;;;;;;9.56;60.28;100312.78;4453474;32;34740;-49
2021/10/31 05:17:07;;;;;;;34.10;18.23;;;;;;;9.64;60.22;100312.88;4454335;32;35718;-48
2021/10/31 05:19:35;;;;;;;32.53;19.62;;;;;;;9.71;60.29;100310.38;4454667;32;35008;-49
2021/10/31 05:22:02;;;;;;;29.45;18.50;;;;;;;9.71;60.78;100315.56;4454614;32;33546;-50
2021/10/31 05:24:30;;;;;;;29.77;18.98;;;;;;;9.83;60.43;100315.69;4454350;32;33999;-49
2021/10/31 05:26:58;;;;;;;31.62;19.52;;;;;;;9.66;61.07;100312.03;4453027;32;34924;-49
2021/10/31 05:29:25;;;;;;;32.63;20.52;;;;;;;9.79;60.96;100315.66;4454351;32;35132;-51
2021/10/31 05:31:54;;;;;;;30.35;20.08;;;;;;;9.95;60.68;100315.84;4454313;32;34271;-52
2021/10/31 05:34:22;;;;;;;27.95;19.02;;;;;;;9.95;60.62;100315.84;4453219;32;33944;-49
2021/10/31 05:36:49;;;;;;;30.95;18.80;;;;;;;10.07;60.15;100315.09;4454189;32;35292;-51
2021/10/31 05:39:17;;;;;;;28.35;19.25;;;;;;;10.08;59.81;100322.00;4454162;32;35082;-49
2021/10/31 05:41:44;;;;;;;29.55;20.27;;;;;;;10.14;59.64;100315.19;4453289;32;34694;-49
2021/10/31 05:44:12;;;;;;;31.60;20.02;;;;;;;10.05;59.74;100320.28;4454148;32;34657;-49
2021/10/31 05:46:39;;;;;;;28.15;18.90;;;;;;;9.97;60.29;100318.44;4454158;32;34917;-51
2021/10/31 05:49:08;;;;;;;29.48;20.02;;;;;;;10.10;60.00;100328.97;4454220;32;34171;-49
2021/10/31 05:51:36;;;;;;;32.05;19.67;;;;;;;10.05;59.89;100333.28;4454375;32;33371;-49
2021/10/31 05:54:03;;;;;;;30.75;19.98;;;;;;;9.92;60.11;100326.19;4454156;32;33853;-49
2021/10/31 05:56:31;;;;;;;28.98;19.80;;;;;;;10.13;59.71;100329.03;4453892;32;34647;-49
2021/10/31 05:58:58;;;;;;;32.85;19.20;;;;;;;10.17;59.35;100335.16;4454275;32;34425;-50
2021/10/31 06:01:26;;;;;;;29.45;18.33;;;;;;;10.18;59.52;100339.47;4454082;32;33485;-50
2021/10/31 06:03:55;;;;;;;28.77;18.33;;;;;;;10.15;59.43;100337.72;4440045;32;34799;-49
2021/10/31 06:06:24;;;;;;;29.70;19.00;;;;;;;10.17;59.39;100349.00;4453840;32;34603;-49
2021/10/31 06:08:51;;;;;;;31.20;20.05;;;;;;;10.10;59.66;100341.97;4454231;32;35208;-49
2021/10/31 06:11:19;;;;;;;30.17;19.67;;;;;;;10.39;59.12;100347.47;4454346;32;34152;-49
2021/10/31 06:13:47;;;;;;;28.62;18.95;;;;;;;10.45;59.13;100359.69;4454008;32;34709;-51
2021/10/31 06:16:14;;;;;;;29.73;20.12;;;;;;;10.38;59.62;100347.47;4453858;32;35791;-50
2021/10/31 06:18:42;;;;;;;29.42;20.20;;;;;;;10.57;59.21;100354.59;4453966;32;34314;-49
2021/10/31 06:21:09;;;;;;;30.80;20.92;;;;;;;10.72;58.92;100354.72;4452991;32;33340;-52
2021/10/31 06:23:37;;;;;;;32.50;19.52;;;;;;;10.58;59.39;100349.37;4454213;32;34013;-50
2021/10/31 06:26:05;;;;;;;32.88;20.42;;;;;;;10.70;59.12;100351.22;4453845;32;35575;-50
2021/10/31 06:28:32;;;;;;;29.98;19.20;;;;;;;10.69;59.36;100344.28;4453821;32;34347;-50
2021/10/31 06:31:00;;;;;;;28.33;19.70;;;;;;;10.91;58.73;100340.97;4454130;32;33703;-49
2021/10/31 06:33:28;;;;;;;32.03;21.02;;;;;;;10.94;58.77;100343.59;4453791;32;33948;-52
2021/10/31 06:35:55;;;;;;;31.37;19.35;;;;;;;10.82;59.46;100348.69;4453929;32;34727;-50
2021/10/31 06:38:23;;;;;;;30.12;19.67;;;;;;;10.77;59.82;100345.19;4454086;32;35138;-50
2021/10/31 06:40:51;;;;;;;31.48;20.27;;;;;;;10.98;59.39;100353.19;4453827;32;33397;-49
2021/10/31 06:43:18;;;;;;;29.65;19.92;;;;;;;10.96;59.69;100341.87;4453689;32;33871;-50
2021/10/31 06:45:46;;;;;;;32.05;19.50;;;;;;;10.96;59.85;100351.44;4453673;32;34737;-49
2021/10/31 06:48:13;;;;;;;31.35;19.23;;;;;;;11.41;58.65;100349.09;4454055;32;35770;-51
2021/10/31 06:50:41;;;;;;;27.87;19.23;;;;;;;11.21;59.41;100350.72;4453711;32;34056;-49
2021/10/31 06:53:08;;;;;;;27.95;18.95;;;;;;;11.29;59.21;100349.88;4453701;32;33817;-49
2021/10/31 06:55:37;;;;;;;28.08;19.15;;;;;;;11.40;59.00;100347.34;4453457;32;34742;-49
2021/10/31 06:58:04;;;;;;;29.52;18.52;;;;;;;11.73;58.21;100351.88;4453693;32;35157;-49
2021/10/31 07:00:31;;;;;;;27.65;18.48;;;;;;;11.57;58.57;100349.19;4453728;32;33350;-51
2021/10/31 07:02:59;;;;;;;35.05;18.95;;;;;;;11.76;57.99;100357.97;4453588;32;33914;-48
2021/10/31 07:05:27;;;;;;;29.77;19.52;;;;;;;11.76;58.22;100360.59;4453809;32;35766;-49
2021/10/31 07:07:54;;;;;;;30.77;19.15;;;;;;;11.93;57.58;100355.44;4453623;32;34146;-49
2021/10/31 07:10:22;;;;;;;28.60;18.50;;;;;;;11.85;58.01;100357.12;4452420;32;34309;-50
2021/10/31 07:12:50;;;;;;;27.27;17.60;;;;;;;11.84;58.08;100355.41;4453628;32;33787;-48
2021/10/31 07:15:17;;;;;;;28.25;17.08;;;;;;;12.18;57.31;100352.00;4453461;32;34887;-51
2021/10/31 07:17:45;;;;;;;28.02;19.37;;;;;;;12.06;57.85;100360.66;4453149;32;34106;-49
2021/10/31 07:20:13;;;;;;;26.55;18.25;;;;;;;12.18;57.44;100357.22;4451806;32;33807;-51
2021/10/31 07:22:42;;;;;;;26.62;18.70;;;;;;;12.19;57.57;100353.75;4452811;32;35024;-50
2021/10/31 07:25:10;;;;;;;27.75;19.62;;;;;;;12.41;57.00;100362.50;4452605;32;34704;-50
2021/10/31 07:27:39;;;;;;;28.80;17.60;;;;;;;12.40;57.07;100353.78;4452953;32;34196;-51
2021/10/31 07:30:07;;;;;;;31.67;19.15;;;;;;;12.57;57.01;100364.25;4453690;32;33527;-49
2021/10/31 07:32:34;;;;;;;27.08;18.20;;;;;;;12.60;57.18;100359.03;4453198;32;33691;-51
2021/10/31 07:35:02;;;;;;;22.77;15.95;;;;;;;12.72;56.88;100365.09;4453244;32;34737;-51
2021/10/31 07:37:30;;;;;;;29.17;18.00;;;;;;;12.77;56.41;100354.66;4451453;32;35116;-49
2021/10/31 07:39:59;;;;;;;22.83;15.60;;;;;;;12.81;59.76;100357.25;4452440;32;33430;-50
2021/10/31 07:42:30;;;;;;;25.55;16.25;;;;;;;13.09;58.20;100363.38;4453058;32;33819;-49
2021/10/31 07:44:58;;;;;;;23.45;16.35;;;;;;;13.21;56.74;100352.03;4452994;32;34964;-49
2021/10/31 07:47:26;;;;;;;26.58;17.08;;;;;;;13.43;55.29;100353.72;4453427;32;34352;-50
2021/10/31 07:49:53;;;;;;;26.17;17.15;;;;;;;13.54;54.64;100358.06;4453192;32;34379;-49
2021/10/31 07:52:22;;;;;;;24.77;17.05;;;;;;;13.57;55.55;100357.16;4453191;32;34116;-49
2021/10/31 07:54:50;;;;;;;24.25;16.30;;;;;;;13.84;54.05;100364.88;4453040;32;34923;-49
2021/10/31 07:57:23;;;;;;;24.90;16.23;;;;;;;13.96;53.20;100358.72;4452995;32;34296;-49
2021/10/31 07:59:51;;;;;;;24.70;17.08;;;;;;;13.93;53.33;100356.16;4453318;32;34239;-50
2021/10/31 08:02:18;;;;;;;24.27;15.88;;;;;;;13.85;53.22;100361.41;4453096;32;34662;-48
2021/10/31 08:04:46;;;;;;;26.20;16.87;;;;;;;13.86;52.91;100352.66;4452993;32;35822;-50
2021/10/31 08:07:14;;;;;;;25.10;15.88;;;;;;;13.75;53.09;100344.00;4453271;32;34449;-50
2021/10/31 08:09:41;;;;;;;24.92;17.48;;;;;;;14.03;52.59;100347.34;4452895;32;33300;-50
2021/10/31 08:12:09;;;;;;;24.50;17.17;;;;;;;13.86;52.90;100341.38;4452648;32;33778;-49
2021/10/31 08:14:36;;;;;;;28.52;17.40;;;;;;;13.99;52.70;100340.41;4452428;32;35514;-51
2021/10/31 08:17:04;;;;;;;25.70;18.62;;;;;;;14.13;52.04;100339.47;4452776;32;35035;-49
2021/10/31 08:19:31;;;;;;;23.95;16.80;;;;;;;14.09;52.37;100336.88;4452418;32;33800;-50
2021/10/31 08:21:59;;;;;;;24.23;16.58;;;;;;;14.12;52.36;100331.63;4451265;32;33691;-48
2021/10/31 08:24:26;;;;;;;23.23;16.45;;;;;;;14.24;52.08;100334.12;4452487;32;35216;-50
2021/10/31 08:26:54;;;;;;;24.12;16.12;;;;;;;14.19;52.28;100335.94;4451654;32;34991;-49
2021/10/31 08:29:24;;;;;;;24.10;15.38;;;;;;;14.32;51.99;100323.66;4451133;32;34350;-48
2021/10/31 08:31:54;;;;;;;23.98;16.40;;;;;;;14.38;51.71;100324.47;4452392;32;33853;-49
2021/10/31 08:34:23;;;;;;;22.55;16.55;;;;;;;14.68;50.91;100323.38;4452573;32;36286;-49
2021/10/31 08:36:50;;;;;;;23.73;17.55;;;;;;;14.49;51.69;100313.94;4452186;32;34395;-49
2021/10/31 08:39:17;;;;;;;23.00;16.50;;;;;;;14.53;52.38;100323.50;4452319;32;32970;-50
2021/10/31 08:41:46;;;;;;;25.83;16.92;;;;;;;14.62;51.63;100324.28;4452425;32;33997;-50
2021/10/31 08:44:13;;;;;;;22.55;17.20;;;;;;;14.59;51.55;100315.63;4451809;32;35365;-49
2021/10/31 08:46:41;;;;;;;23.67;18.02;;;;;;;14.63;51.53;100312.09;4452617;32;34854;-49
2021/10/31 08:49:09;;;;;;;25.42;17.37;;;;;;;14.69;51.45;100320.75;4452281;32;34431;-49
2021/10/31 08:51:37;;;;;;;22.45;16.17;;;;;;;14.80;51.22;100310.19;4452397;32;34775;-49
2021/10/31 08:54:04;;;;;;;26.33;16.92;;;;;;;14.68;51.46;100321.66;4452324;32;35812;-50
2021/10/31 08:56:32;;;;;;;22.27;16.27;;;;;;;14.62;51.71;100318.22;4451811;32;34372;-51
2021/10/31 08:59:00;;;;;;;25.25;16.83;;;;;;;14.75;51.29;100319.84;4451883;32;33676;-49
2021/10/31 09:01:28;;;;;;;21.87;16.12;;;;;;;14.68;51.45;100312.91;4451716;32;34047;-50
2021/10/31 09:03:57;;;;;;;27.35;15.77;;;;;;;14.76;51.38;100311.09;4451875;32;35778;-50
2021/10/31 09:06:25;;;;;;;22.52;14.85;;;;;;;14.86;51.70;100312.72;4450286;32;34583;-50
2021/10/31 09:08:53;;;;;;;21.77;15.07;;;;;;;14.76;51.49;100311.09;4452200;32;33496;-50
2021/10/31 09:11:21;;;;;;;21.33;14.20;;;;;;;15.06;50.79;100308.19;4452244;32;33815;-49
2021/10/31 09:13:49;;;;;;;20.65;14.68;;;;;;;15.04;50.70;100303.84;4451339;32;35520;-49
2021/10/31 09:16:17;;;;;;;20.98;15.32;;;;;;;14.87;51.11;100302.25;4452338;32;35191;-49
2021/10/31 09:18:45;;;;;;;19.92;15.00;;;;;;;14.93;50.54;100296.94;4451846;32;33307;-50
2021/10/31 09:21:12;;;;;;;21.62;14.98;;;;;;;14.85;52.04;100301.41;4450740;32;34341;-49
2021/10/31 09:23:40;;;;;;;19.45;14.52;;;;;;;14.97;51.04;100302.16;4451979;32;34840;-50
2021/10/31 09:26:08;;;;;;;19.92;14.48;;;;;;;15.04;50.98;100290.75;4451900;32;35153;-51
2021/10/31 09:28:35;;;;;;;20.95;14.63;;;;;;;15.04;50.81;100291.63;4451832;32;33426;-49
2021/10/31 09:31:02;;;;;;;20.35;13.75;;;;;;;14.91;50.75;100295.22;4451832;32;33724;-49
2021/10/31 09:33:33;;;;;;;19.05;13.70;;;;;;;15.22;50.09;100285.28;4452016;32;35764;-49
2021/10/31 09:36:00;;;;;;;17.85;12.57;;;;;;;15.22;50.40;100280.94;4452098;32;34898;-51
2021/10/31 09:38:30;;;;;;;17.17;13.32;;;;;;;15.46;49.39;100288.53;4449950;32;34315;-49
2021/10/31 09:40:58;;;;;;;18.05;12.90;;;;;;;15.35;49.20;100274.66;4451534;32;34724;-50
2021/10/31 09:43:35;;;;;;;18.77;13.88;;;;;;;15.31;49.62;100277.31;4451870;32;35008;-48
2021/10/31 09:46:06;;;;;;;19.62;12.77;;;;;;;15.55;49.00;100270.06;4452174;32;35526;-49
2021/10/31 09:48:34;;;;;;;20.55;12.93;;;;;;;15.48;49.90;100267.53;4452931;32;33176;-49
2021/10/31 09:51:01;;;;;;;18.70;13.57;;;;;;;15.57;48.96;100276.16;4453240;32;34885;-51
2021/10/31 09:53:30;;;;;;;19.52;13.32;;;;;;;15.76;48.32;100268.06;4452655;32;35664;-50
2021/10/31 09:55:58;;;;;;;21.40;14.45;;;;;;;15.62;48.76;100265.59;4449908;32;33804;-49
2021/10/31 09:58:33;;;;;;;21.85;13.82;;;;;;;15.58;49.76;100258.69;4453559;32;33463;-49
2021/10/31 10:01:09;;;;;;;18.92;13.32;;;;;;;15.52;49.35;100254.37;4453727;32;34684;-49
2021/10/31 10:03:37;;;;;;;17.33;13.05;;;;;;;15.73;48.90;100257.59;4453032;32;34690;-49
2021/10/31 10:06:18;;;;;;;17.70;13.45;;;;;;;15.80;48.51;100259.25;4451313;32;34818;-49
2021/10/31 10:09:06;;;;;;;19.40;12.93;;;;;;;15.78;48.62;100255.78;4452044;32;34350;-50
2021/10/31 10:11:37;;;;;;;18.67;12.90;;;;;;;15.86;48.57;100252.16;4452694;32;34793;-49
2021/10/31 10:14:11;;;;;;;19.08;13.25;;;;;;;15.76;48.57;100254.94;4451217;32;35686;-48
2021/10/31 10:16:40;;;;;;;17.75;12.43;;;;;;;15.82;48.58;100246.97;4451238;32;34351;-51
2021/10/31 10:19:34;;;;;;;18.62;12.07;;;;;;;15.75;48.33;100240.97;4452183;32;34635;-50
2021/10/31 10:22:03;;;;;;;18.33;11.82;;;;;;;15.88;47.68;100233.78;4453005;32;34338;-49
2021/10/31 10:24:33;;;;;;;14.43;10.82;;;;;;;15.84;48.14;100235.56;4452147;32;34742;-49
2021/10/31 10:27:03;;;;;;;16.42;10.98;;;;;;;15.85;47.61;100229.47;4453542;32;35230;-49
2021/10/31 10:29:35;;;;;;;20.23;12.30;;;;;;;16.01;49.02;100222.22;4452884;32;32714;-48
2021/10/31 10:32:06;;;;;;;19.33;13.02;;;;;;;16.05;48.28;100216.00;4449797;32;34769;-50
2021/10/31 10:35:01;;;;;;;13.48;10.43;;;;;;;16.10;47.90;100212.44;4453608;32;35887;-49
2021/10/31 10:37:31;;;;;;;13.13;9.43;;;;;;;16.14;47.34;100206.25;4450685;32;35004;-49
2021/10/31 10:40:05;;;;;;;14.02;9.75;;;;;;;16.06;47.13;100199.41;4453042;32;32932;-50
2021/10/31 10:42:47;;;;;;;14.85;9.18;;;;;;;16.31;46.15;100202.50;4452183;32;35056;-50
2021/10/31 10:45:21;;;;;;;14.02;9.30;;;;;;;16.17;46.21;100193.06;4452595;32;34678;-49
2021/10/31 10:47:53;;;;;;;13.90;9.30;;;;;;;16.27;45.70;100204.28;4453442;32;34421;-49
2021/10/31 10:50:27;;;;;;;13.38;9.18;;;;;;;16.22;45.91;100200.88;4453726;32;33217;-49
2021/10/31 10:52:55;;;;;;;11.55;9.23;;;;;;;16.48;45.04;100182.91;4453130;32;33905;-49
2021/10/31 10:55:25;;;;;;;14.23;9.35;;;;;;;16.38;45.37;100180.50;4452525;32;34779;-52
2021/10/31 10:58:02;;;;;;;16.60;9.90;;;;;;;16.22;45.69;100179.87;4453773;32;34856;-49
2021/10/31 11:00:34;;;;;;;14.57;10.38;;;;;;;16.30;45.58;100174.50;4452439;32;33324;-48
2021/10/31 11:03:10;;;;;;;14.57;9.73;;;;;;;16.55;44.69;100179.31;4453612;32;34769;-48
2021/10/31 11:05:39;;;;;;;12.60;9.90;;;;;;;16.32;45.17;100165.72;4453530;32;34915;-48
2021/10/31 11:08:18;;;;;;;13.27;8.60;;;;;;;16.39;44.90;100167.31;4452502;32;34284;-49
2021/10/31 11:10:49;;;;;;;11.32;8.32;;;;;;;16.69;44.13;100156.28;4453142;32;33870;-49
2021/10/31 11:13:16;;;;;;;9.82;7.72;;;;;;;16.92;43.73;100158.47;4452329;32;33135;-49
2021/10/31 11:15:43;;;;;;;15.27;9.18;;;;;;;16.77;43.85;100158.75;4453513;32;35944;-51
2021/10/31 11:18:11;;;;;;;12.65;8.48;;;;;;;16.66;44.02;100151.06;4453487;32;34568;-49
2021/10/31 11:20:41;;;;;;;11.80;8.15;;;;;;;16.51;44.17;100146.13;4451779;32;34059;-50
2021/10/31 11:23:11;;;;;;;13.18;8.80;;;;;;;16.71;43.64;100135.25;4439538;32;34617;-50
2021/10/31 11:25:42;;;;;;;11.77;8.80;;;;;;;16.72;43.78;100144.84;4453226;32;34865;-49